Terminal Aerodrome Forecast
Issued by NWS Sioux Falls, SD

Home | Current Version | Previous Version | Graphics & Text | Print | Product List | Glossary On
Versions: 1 2 3 4 5 6 7 8 9 10 11 12 13 14 15 16 17 18 19 20 21 22 23 24 25 26 27 28 29 30 31 32 33 34 35 36 37 38 39 40 41
000
FTUS43 KFSD 261130
TAFSUX
TAF
KSUX 261130Z 2612/2712 VRB03KT 4SM -SHRA BR SCT012 BKN045
      TEMPO 2612/2613 3SM BR BKN012
     FM261400 36005KT 6SM SHRA BR SCT010 BKN070
     FM261600 34007KT P6SM SCT025 BKN070
     FM262000 32011KT P6SM BKN080
     FM270100 27005KT P6SM SCT200=

USA.gov is the U.S. government's official web portal to all federal, state and local government web resources and services.